Bryce, Utah
Current Conditions -  °F | °C
As of 5:53 PM on Saturday 22 Nov 2014 (Local Time) from KBCE Reporting Station
Overcast Overcast  
Wind Chill: 33°   Ceiling: 8000
Heat Index: 42°   Visibility: 10mi
Dew Point: 19°   Wind: 21mph
Humidity: 40%   Direction: 230°SW
Pressure: 29.9"   Gusts: 29mph
Location:  37.67°N, 112.16°W
Report Text: KBCE 230053Z AUTO 23018G25KT 10SM SCT060 OVC080 06/M07 A2990 RMK AO2 SLP102 T00561072
Loading
Personal Weather Stations






























Interactive Weather Map New forecast layout! Learn more

10-Day Weather Forecast

Advertisements
Track Severe Weather on mobile